createdAt,value
2018-12-22T00:00:50.089Z,98.20
2018-12-22T00:03:19.111Z,98.00
2018-12-22T00:05:48.100Z,97.00
2018-12-22T00:08:17.088Z,95.70
2018-12-22T00:10:47.057Z,95.40
2018-12-22T00:13:16.072Z,96.10
2018-12-22T00:15:45.108Z,96.00
2018-12-22T00:18:14.095Z,95.90
2018-12-22T00:20:43.609Z,96.40
2018-12-22T00:23:12.579Z,95.00
2018-12-22T00:25:41.515Z,92.60
2018-12-22T00:28:10.518Z,92.30
2018-12-22T00:30:39.460Z,92.50
2018-12-22T00:33:08.468Z,92.10
2018-12-22T00:35:37.404Z,92.70
2018-12-22T00:38:06.450Z,92.00
2018-12-22T00:40:35.455Z,91.00
2018-12-22T00:43:04.437Z,87.70
2018-12-22T00:45:33.435Z,86.40
2018-12-22T00:48:02.720Z,85.50
2018-12-22T00:50:31.699Z,82.40
2018-12-22T00:53:00.761Z,81.90
2018-12-22T00:55:30.648Z,82.60
2018-12-22T00:57:59.653Z,80.50
2018-12-22T01:00:28.814Z,81.90
2018-12-22T01:02:57.813Z,79.70
2018-12-22T01:05:26.824Z,77.30
2018-12-22T01:07:55.811Z,74.70
2018-12-22T01:10:24.744Z,72.90
2018-12-22T01:12:53.718Z,72.50
2018-12-22T01:15:22.712Z,72.10
2018-12-22T01:17:51.659Z,71.30
2018-12-22T01:20:20.695Z,70.90
2018-12-22T01:22:49.704Z,70.50
2018-12-22T01:25:18.742Z,71.20
2018-12-22T01:27:47.819Z,71.70
2018-12-22T01:30:16.793Z,70.80
2018-12-22T01:32:45.838Z,71.30
2018-12-22T01:35:14.845Z,71.50
2018-12-22T01:37:43.824Z,72.00
2018-12-22T01:40:12.852Z,72.30
2018-12-22T01:42:41.847Z,72.60
2018-12-22T01:45:10.953Z,72.80
2018-12-22T01:47:39.964Z,72.70
2018-12-22T01:50:09.015Z,73.90
2018-12-22T01:52:38.081Z,74.30
2018-12-22T01:55:07.636Z,75.00
2018-12-22T01:57:36.724Z,76.30
2018-12-22T02:00:07.985Z,78.30
2018-12-22T02:02:36.921Z,78.20
2018-12-22T02:05:06.309Z,78.10
2018-12-22T02:07:35.374Z,79.30
2018-12-22T02:10:05.727Z,81.00
2018-12-22T02:12:34.665Z,81.50
2018-12-22T02:15:04.096Z,83.60
2018-12-22T02:17:34.078Z,86.00
2018-12-22T02:20:03.405Z,87.90
2018-12-22T02:22:32.438Z,89.30
2018-12-22T02:25:01.410Z,92.20
2018-12-22T02:27:30.389Z,91.60
2018-12-22T02:29:59.316Z,91.70
2018-12-22T02:32:28.383Z,92.00
2018-12-22T02:34:57.372Z,94.20
2018-12-22T02:37:26.507Z,93.30
2018-12-22T02:39:55.460Z,93.90
2018-12-22T02:42:24.467Z,93.60
2018-12-22T02:44:53.460Z,93.00
2018-12-22T02:47:23.314Z,91.00
2018-12-22T02:49:52.367Z,88.70
2018-12-22T02:52:21.342Z,87.40
2018-12-22T02:54:50.264Z,86.50
2018-12-22T02:57:19.261Z,84.30
2018-12-22T02:59:54.264Z,81.60
2018-12-22T03:02:23.255Z,80.20
2018-12-22T03:04:52.246Z,77.80
2018-12-22T03:07:21.261Z,75.80
2018-12-22T03:09:50.272Z,73.60
2018-12-22T03:12:20.244Z,74.00
2018-12-22T03:14:49.272Z,72.10
2018-12-22T03:17:18.272Z,71.20
2018-12-22T03:19:47.295Z,70.50
2018-12-22T03:22:16.386Z,70.30
2018-12-22T03:24:45.438Z,70.50
2018-12-22T03:27:14.522Z,70.00
2018-12-22T03:29:44.384Z,69.60
2018-12-22T03:32:13.396Z,70.10
2018-12-22T03:34:42.490Z,69.30
2018-12-22T03:37:11.518Z,68.80
2018-12-22T03:39:40.505Z,69.90
2018-12-22T03:42:09.542Z,69.90
2018-12-22T03:44:39.311Z,70.40
2018-12-22T03:47:08.358Z,68.90
2018-12-22T03:49:37.376Z,68.90
2018-12-22T03:52:06.373Z,69.00
2018-12-22T03:54:35.350Z,70.20
2018-12-22T03:57:04.331Z,69.70
2018-12-22T03:59:33.340Z,69.80
2018-12-22T04:02:02.323Z,70.00
2018-12-22T04:04:31.338Z,70.10
2018-12-22T04:07:00.362Z,69.60
2018-12-22T04:09:29.373Z,70.40
2018-12-22T04:11:58.369Z,70.10
2018-12-22T04:14:27.500Z,69.70
2018-12-22T04:16:58.438Z,69.40
2018-12-22T04:19:27.384Z,68.10
2018-12-22T04:21:56.431Z,68.70
2018-12-22T04:24:25.434Z,69.90
2018-12-22T04:26:54.430Z,69.30
2018-12-22T04:29:23.419Z,69.00
2018-12-22T04:31:52.422Z,68.90
2018-12-22T04:34:22.523Z,69.70
2018-12-22T04:36:51.507Z,68.70
2018-12-22T04:39:21.366Z,69.10
2018-12-22T04:41:50.439Z,69.20
2018-12-22T04:44:19.430Z,69.20
2018-12-22T04:46:48.446Z,68.70
2018-12-22T04:49:17.423Z,68.60
2018-12-22T04:51:46.418Z,68.90
2018-12-22T04:54:15.354Z,68.90
2018-12-22T04:56:44.308Z,68.70
2018-12-22T04:59:13.298Z,68.40
2018-12-22T05:01:42.286Z,68.80
2018-12-22T05:04:11.229Z,68.20
2018-12-22T05:06:40.261Z,67.80
2018-12-22T05:09:09.248Z,68.10
2018-12-22T05:11:38.267Z,69.10
2018-12-22T05:14:07.254Z,70.10
2018-12-22T05:16:36.259Z,70.00
2018-12-22T05:19:05.223Z,70.30
2018-12-22T05:21:34.209Z,70.70
2018-12-22T05:24:04.152Z,71.40
2018-12-22T05:26:33.687Z,71.50
2018-12-22T05:29:02.700Z,71.80
2018-12-22T05:31:31.763Z,72.50
2018-12-22T05:34:00.772Z,72.40
2018-12-22T05:36:29.751Z,71.50
2018-12-22T05:38:58.755Z,71.80
2018-12-22T05:41:27.749Z,72.40
2018-12-22T05:43:56.795Z,72.30
2018-12-22T05:46:25.724Z,72.90
2018-12-22T05:48:54.834Z,74.00
2018-12-22T05:51:24.761Z,73.80
2018-12-22T05:53:53.786Z,73.80
2018-12-22T05:56:22.801Z,73.50
2018-12-22T05:58:51.730Z,73.20
2018-12-22T06:01:20.785Z,71.70
2018-12-22T06:03:50.622Z,70.90
2018-12-22T06:06:19.844Z,70.30
2018-12-22T06:08:48.948Z,70.00
2018-12-22T06:11:17.908Z,70.10
2018-12-22T06:13:46.912Z,69.50
2018-12-22T06:16:15.904Z,69.40
2018-12-22T06:18:44.893Z,69.50
2018-12-22T06:21:16.638Z,69.20
2018-12-22T06:23:45.668Z,68.90
2018-12-22T06:26:14.706Z,69.20
2018-12-22T06:28:43.714Z,68.50
2018-12-22T06:31:12.687Z,68.20
2018-12-22T06:33:41.701Z,68.00
2018-12-22T06:36:10.631Z,68.90
2018-12-22T06:38:40.471Z,67.10
2018-12-22T06:41:09.532Z,66.70
2018-12-22T06:43:38.523Z,66.40
2018-12-22T06:46:07.528Z,65.90
2018-12-22T06:48:36.624Z,65.40
2018-12-22T06:51:05.642Z,65.20
2018-12-22T06:53:34.586Z,64.90
2018-12-22T06:56:03.579Z,64.00
2018-12-22T06:58:32.669Z,63.00
2018-12-22T07:01:01.633Z,62.70
2018-12-22T07:03:32.577Z,63.10
2018-12-22T07:06:01.541Z,62.30
2018-12-22T07:08:30.702Z,62.50
2018-12-22T07:10:59.716Z,62.30
2018-12-22T07:13:28.733Z,62.30
2018-12-22T07:15:57.700Z,62.30
2018-12-22T07:18:26.642Z,62.20
2018-12-22T07:20:55.765Z,62.40
2018-12-22T07:23:24.697Z,62.80
2018-12-22T07:25:53.722Z,63.10
2018-12-22T07:28:22.656Z,62.30
2018-12-22T07:30:51.682Z,63.20
2018-12-22T07:33:20.674Z,63.60
2018-12-22T07:35:49.677Z,64.30
2018-12-22T07:38:18.760Z,64.40
2018-12-22T07:40:47.674Z,64.40
2018-12-22T07:43:16.667Z,63.80
2018-12-22T07:45:45.640Z,64.40
2018-12-22T07:48:14.635Z,64.20
2018-12-22T07:50:43.561Z,64.20
2018-12-22T07:53:12.599Z,64.00
2018-12-22T07:55:41.546Z,64.10
2018-12-22T07:58:10.612Z,63.40
2018-12-22T08:00:39.564Z,62.90
2018-12-22T08:03:08.512Z,62.90
2018-12-22T08:05:38.871Z,63.10
2018-12-22T08:08:08.191Z,62.90
2018-12-22T08:10:37.186Z,63.10
2018-12-22T08:13:06.786Z,62.90
2018-12-22T08:15:37.523Z,62.50
2018-12-22T08:18:06.649Z,62.40
2018-12-22T08:20:35.596Z,62.50
2018-12-22T08:23:04.704Z,61.00
2018-12-22T08:25:33.669Z,60.60
2018-12-22T08:28:02.642Z,60.40
2018-12-22T08:30:31.660Z,59.90
2018-12-22T08:33:00.630Z,60.40
2018-12-22T08:35:29.678Z,60.20
2018-12-22T08:37:58.611Z,59.90
2018-12-22T08:40:27.711Z,59.20
2018-12-22T08:42:56.641Z,58.40
2018-12-22T08:45:27.552Z,58.30
2018-12-22T08:47:56.554Z,58.10
2018-12-22T08:50:26.101Z,57.10
2018-12-22T08:52:55.027Z,56.80
2018-12-22T08:55:24.054Z,56.00
2018-12-22T08:57:53.078Z,56.80
2018-12-22T09:00:22.100Z,57.00
2018-12-22T09:02:51.073Z,56.50
2018-12-22T09:05:20.071Z,56.20
2018-12-22T09:07:49.036Z,57.10
2018-12-22T09:10:18.016Z,56.20
2018-12-22T09:12:47.968Z,56.60
2018-12-22T09:15:19.859Z,56.40
2018-12-22T09:17:49.531Z,56.90
2018-12-22T09:20:18.817Z,55.90
2018-12-22T09:22:47.708Z,55.00
2018-12-22T09:25:16.706Z,54.80
2018-12-22T09:27:46.539Z,55.50
2018-12-22T09:30:15.562Z,56.60
2018-12-22T09:32:44.508Z,58.90
2018-12-22T09:35:13.566Z,60.20
2018-12-22T09:37:42.607Z,64.30
2018-12-22T09:40:11.712Z,72.50
2018-12-22T09:42:40.663Z,72.90
2018-12-22T09:45:09.720Z,77.10
2018-12-22T09:47:38.673Z,75.90
2018-12-22T09:50:10.292Z,77.00
2018-12-22T09:52:39.322Z,77.70
2018-12-22T09:55:08.297Z,78.80
2018-12-22T09:57:37.281Z,81.40
2018-12-22T10:00:10.877Z,81.90
2018-12-22T10:02:39.890Z,79.10
2018-12-22T10:05:09.387Z,78.90
2018-12-22T10:07:38.527Z,81.50
2018-12-22T10:10:11.565Z,79.70
2018-12-22T10:12:40.519Z,78.50
2018-12-22T10:15:10.013Z,79.10
2018-12-22T10:17:39.895Z,79.40
2018-12-22T10:20:08.904Z,80.90
2018-12-22T10:22:38.984Z,81.40
2018-12-22T10:25:08.268Z,80.10
2018-12-22T10:27:37.224Z,81.60
2018-12-22T10:30:10.001Z,81.10
2018-12-22T10:32:38.958Z,81.40
2018-12-22T10:35:14.431Z,81.00
2018-12-22T10:37:43.464Z,78.70
2018-12-22T10:40:12.463Z,77.90
2018-12-22T10:42:41.418Z,70.90
2018-12-22T10:45:10.383Z,67.60
2018-12-22T10:47:39.330Z,67.00
2018-12-22T10:50:08.410Z,63.10
2018-12-22T10:52:37.784Z,60.80
2018-12-22T10:55:08.886Z,59.60
2018-12-22T10:57:37.958Z,59.00
2018-12-22T11:00:11.516Z,57.10
2018-12-22T11:02:41.388Z,56.90
2018-12-22T11:05:11.158Z,56.70
2018-12-22T11:07:40.181Z,57.30
2018-12-22T11:10:14.043Z,56.10
2018-12-22T11:15:20.145Z,56.60
2018-12-22T11:17:49.152Z,56.70
2018-12-22T11:20:18.077Z,57.50
2018-12-22T11:22:47.014Z,56.70
2018-12-22T11:25:16.222Z,56.10
2018-12-22T11:27:45.155Z,56.00
2018-12-22T11:30:19.495Z,56.70
2018-12-22T11:32:48.443Z,54.90
2018-12-22T11:35:18.563Z,55.10
2018-12-22T11:37:47.459Z,55.30
2018-12-22T11:40:16.418Z,53.50
2018-12-22T11:42:47.916Z,53.10
2018-12-22T11:45:16.256Z,54.00
2018-12-22T11:47:48.537Z,52.70
2018-12-22T11:50:23.902Z,51.20
2018-12-22T11:52:52.888Z,47.70
2018-12-22T11:55:21.942Z,47.50
2018-12-22T11:57:50.982Z,48.20
2018-12-22T12:00:19.977Z,50.40
2018-12-22T12:02:48.921Z,53.10
2018-12-22T12:05:17.866Z,57.30
2018-12-22T12:07:46.787Z,61.80
2018-12-22T12:10:15.754Z,64.00
2018-12-22T12:12:44.766Z,64.80
2018-12-22T12:15:18.208Z,65.80
2018-12-22T12:20:56.059Z,67.10
2018-12-22T12:23:25.066Z,67.80
2018-12-22T12:25:53.993Z,61.30
2018-12-22T12:28:22.921Z,58.30
2018-12-22T12:30:51.909Z,59.70
2018-12-22T12:33:20.846Z,55.80
2018-12-22T12:35:49.890Z,55.90
2018-12-22T12:38:20.642Z,53.20
2018-12-22T12:40:49.565Z,52.60
2018-12-22T12:43:18.528Z,50.40
2018-12-22T12:45:47.489Z,51.00
2018-12-22T12:48:16.790Z,48.50
2018-12-22T12:50:47.815Z,48.10
2018-12-22T12:53:16.684Z,47.60
2018-12-22T12:55:45.723Z,46.20
2018-12-22T12:58:14.735Z,46.90
2018-12-22T13:00:43.885Z,46.10
2018-12-22T13:03:12.940Z,46.30
2018-12-22T13:05:43.825Z,45.30
2018-12-22T13:08:12.765Z,46.10
2018-12-22T13:10:41.728Z,45.10
2018-12-22T13:16:05.543Z,44.60
2018-12-22T13:18:34.910Z,44.00
2018-12-22T13:21:07.644Z,45.00
2018-12-22T13:23:36.686Z,44.60
2018-12-22T13:26:05.614Z,44.80
2018-12-22T13:28:34.537Z,45.00
2018-12-22T13:31:03.540Z,45.20
2018-12-22T13:33:32.658Z,44.70
2018-12-22T13:36:01.859Z,43.60
2018-12-22T13:38:33.268Z,45.20
2018-12-22T13:41:01.990Z,46.30
2018-12-22T13:43:30.961Z,46.40
2018-12-22T13:45:59.888Z,46.20
2018-12-22T13:48:29.264Z,46.70
2018-12-22T13:50:58.322Z,47.50
2018-12-22T13:53:27.685Z,48.80
2018-12-22T13:55:56.639Z,49.40
2018-12-22T13:58:25.681Z,48.30
2018-12-22T14:00:54.650Z,49.20
2018-12-22T14:03:23.589Z,49.10
2018-12-22T14:05:52.562Z,49.80
2018-12-22T14:08:21.497Z,50.30
2018-12-22T14:10:50.430Z,49.70
2018-12-22T14:13:19.427Z,50.50
2018-12-22T14:15:49.934Z,50.90
2018-12-22T14:18:31.957Z,50.80
2018-12-22T14:21:00.925Z,51.60
2018-12-22T14:23:52.142Z,52.40
2018-12-22T14:26:21.073Z,50.40
2018-12-22T14:28:50.080Z,51.30
2018-12-22T14:31:19.012Z,50.30
2018-12-22T14:33:48.147Z,51.10
2018-12-22T14:36:17.138Z,51.00
2018-12-22T14:38:46.089Z,51.30
2018-12-22T14:41:15.114Z,51.50
2018-12-22T14:43:44.045Z,50.70
2018-12-22T14:46:13.005Z,51.50
2018-12-22T14:48:41.985Z,52.20
2018-12-22T14:51:10.995Z,51.70
2018-12-22T14:53:39.939Z,51.60
2018-12-22T14:56:08.937Z,51.60
2018-12-22T14:58:37.867Z,52.10
2018-12-22T15:01:06.886Z,52.20
2018-12-22T15:03:35.827Z,52.30
2018-12-22T15:06:04.803Z,52.00
2018-12-22T15:08:33.756Z,52.10
2018-12-22T15:11:03.652Z,53.70
2018-12-22T15:13:32.833Z,52.70
2018-12-22T15:16:01.834Z,53.30
2018-12-22T15:18:30.762Z,52.80
2018-12-22T15:20:59.840Z,53.40
2018-12-22T15:23:28.791Z,51.90
2018-12-22T15:25:57.720Z,52.50
2018-12-22T15:28:26.663Z,52.70
2018-12-22T15:30:55.645Z,53.10
2018-12-22T15:33:24.589Z,53.80
2018-12-22T15:35:53.564Z,53.80
2018-12-22T15:38:22.514Z,54.40
2018-12-22T15:40:51.508Z,53.90
2018-12-22T15:43:20.428Z,54.00
2018-12-22T15:45:49.394Z,54.50
2018-12-22T15:48:18.422Z,54.50
2018-12-22T15:50:47.434Z,54.70
2018-12-22T15:53:16.418Z,55.00
2018-12-22T15:55:45.438Z,55.00
2018-12-22T15:58:14.412Z,56.60
2018-12-22T16:00:43.348Z,56.50
2018-12-22T16:03:12.358Z,56.60
2018-12-22T16:05:41.356Z,57.10
2018-12-22T16:08:10.305Z,58.10
2018-12-22T16:10:39.244Z,58.50
2018-12-22T16:13:08.233Z,58.70
2018-12-22T16:15:37.208Z,58.70
2018-12-22T16:18:06.163Z,58.70
2018-12-22T16:20:35.109Z,59.50
2018-12-22T16:23:04.149Z,59.50
2018-12-22T16:25:33.108Z,60.30
2018-12-22T16:28:02.466Z,60.40
2018-12-22T16:30:40.516Z,60.80
2018-12-22T16:33:09.451Z,60.90
2018-12-22T16:35:38.443Z,61.50
2018-12-22T16:38:07.369Z,61.80
2018-12-22T16:40:36.354Z,62.30
2018-12-22T16:43:09.612Z,62.80
2018-12-22T16:45:41.261Z,62.90
2018-12-22T16:48:10.211Z,63.10
2018-12-22T16:50:39.258Z,63.90
2018-12-22T16:53:08.196Z,63.80
2018-12-22T16:55:37.133Z,64.10
2018-12-22T16:58:11.918Z,65.60
2018-12-22T17:00:54.211Z,65.70
2018-12-22T17:03:23.392Z,65.80
2018-12-22T17:05:54.034Z,66.00
2018-12-22T17:08:22.957Z,65.70
2018-12-22T17:10:53.385Z,67.10
2018-12-22T17:13:22.335Z,66.60
2018-12-22T17:15:51.500Z,66.80
2018-12-22T17:18:20.508Z,67.50
2018-12-22T17:20:54.251Z,67.30
2018-12-22T17:23:36.677Z,67.00
2018-12-22T17:26:05.749Z,67.40
2018-12-22T17:28:34.715Z,66.90
2018-12-22T17:31:03.652Z,67.40
2018-12-22T17:33:32.573Z,67.00
2018-12-22T17:36:01.654Z,67.10
2018-12-22T17:38:30.578Z,67.30
2018-12-22T17:40:59.670Z,66.70
2018-12-22T17:43:28.670Z,67.50
2018-12-22T17:45:57.638Z,67.60
2018-12-22T17:48:26.634Z,67.50
2018-12-22T17:50:55.640Z,68.00
2018-12-22T17:53:24.583Z,67.40
2018-12-22T17:55:53.613Z,67.60
2018-12-22T17:58:22.537Z,67.30
2018-12-22T18:00:51.544Z,68.00
2018-12-22T18:03:27.416Z,68.40
2018-12-22T18:05:51.528Z,68.80
2018-12-22T18:08:20.507Z,68.80
2018-12-22T18:10:49.459Z,69.30
2018-12-22T18:13:18.388Z,69.00
2018-12-22T18:15:47.368Z,69.40
2018-12-22T18:18:16.342Z,69.80
2018-12-22T18:20:45.290Z,69.40
2018-12-22T18:23:14.222Z,69.10
2018-12-22T18:25:43.185Z,69.40
2018-12-22T18:28:12.196Z,70.30
2018-12-22T18:30:41.215Z,70.60
2018-12-22T18:33:10.212Z,69.00
2018-12-22T18:35:39.172Z,69.60
2018-12-22T18:38:08.090Z,70.10
2018-12-22T18:40:37.018Z,69.60
2018-12-22T18:43:05.965Z,70.30
2018-12-22T18:45:34.886Z,71.00
2018-12-22T18:48:03.845Z,70.70
2018-12-22T18:50:32.799Z,70.50
2018-12-22T18:53:01.755Z,70.60
2018-12-22T18:55:30.738Z,71.50
2018-12-22T18:57:59.774Z,72.00
2018-12-22T19:00:28.755Z,71.70
2018-12-22T19:02:57.730Z,71.30
2018-12-22T19:05:26.670Z,71.30
2018-12-22T19:07:55.620Z,71.10
2018-12-22T19:10:30.635Z,71.50
2018-12-22T19:12:59.561Z,71.60
2018-12-22T19:15:28.519Z,72.30
2018-12-22T19:17:57.506Z,73.30
2018-12-22T19:20:32.226Z,73.10
2018-12-22T19:23:01.172Z,73.20
2018-12-22T19:25:30.117Z,74.10
2018-12-22T19:27:59.047Z,73.00
2018-12-22T19:30:28.011Z,73.60
2018-12-22T19:32:57.026Z,72.50
2018-12-22T19:35:26.004Z,72.60
2018-12-22T19:37:55.025Z,72.20
2018-12-22T19:40:23.985Z,72.50
2018-12-22T19:42:53.003Z,72.40
2018-12-22T19:45:21.957Z,72.80
2018-12-22T19:47:50.959Z,72.30
2018-12-22T19:50:19.928Z,72.30
2018-12-22T19:52:48.901Z,72.50
2018-12-22T19:55:17.891Z,71.80
2018-12-22T19:57:46.831Z,71.70
2018-12-22T20:00:15.860Z,72.20
2018-12-22T20:02:44.879Z,72.00
2018-12-22T20:05:13.825Z,72.30
2018-12-22T20:07:42.880Z,72.20
2018-12-22T20:10:11.848Z,73.80
2018-12-22T20:12:40.821Z,73.80
2018-12-22T20:15:09.792Z,73.70
2018-12-22T20:17:38.792Z,73.90
2018-12-22T20:20:09.215Z,72.90
2018-12-22T20:22:38.127Z,72.10
2018-12-22T20:25:07.099Z,72.50
2018-12-22T20:27:36.096Z,72.80
2018-12-22T20:30:06.649Z,73.00
2018-12-22T20:32:35.569Z,73.40
2018-12-22T20:35:04.858Z,74.00
2018-12-22T20:37:33.850Z,73.00
2018-12-22T20:40:02.825Z,72.80
2018-12-22T20:42:31.765Z,73.20
2018-12-22T20:45:00.685Z,72.60
2018-12-22T20:47:29.669Z,72.60
2018-12-22T20:49:58.603Z,72.10
2018-12-22T20:55:02.896Z,72.70
2018-12-22T20:57:32.007Z,72.40
2018-12-22T21:00:00.945Z,71.90
2018-12-22T21:02:29.878Z,71.40
2018-12-22T21:04:58.876Z,72.70
2018-12-22T21:07:27.832Z,71.60
2018-12-22T21:09:56.780Z,72.50
2018-12-22T21:12:25.731Z,71.80
2018-12-22T21:14:54.657Z,72.50
2018-12-22T21:17:23.597Z,72.80
2018-12-22T21:19:52.540Z,73.20
2018-12-22T21:22:21.536Z,73.10
2018-12-22T21:24:50.489Z,72.90
2018-12-22T21:27:19.467Z,72.40
2018-12-22T21:29:48.451Z,72.90
2018-12-22T21:32:17.374Z,72.50
2018-12-22T21:34:46.301Z,72.00
2018-12-22T21:37:15.358Z,72.50
2018-12-22T21:39:44.282Z,72.30
2018-12-22T21:42:13.202Z,73.20
2018-12-22T21:44:42.151Z,72.30
2018-12-22T21:47:11.078Z,72.40
2018-12-22T21:49:40.049Z,72.70
2018-12-22T21:52:09.113Z,72.60
2018-12-22T21:54:38.166Z,72.80
2018-12-22T21:57:07.083Z,72.10
2018-12-22T21:59:36.066Z,72.00
2018-12-22T22:02:05.040Z,71.90
2018-12-22T22:04:37.130Z,71.50
2018-12-22T22:07:05.168Z,71.60
2018-12-22T22:09:34.090Z,72.10
2018-12-22T22:12:03.045Z,73.10
2018-12-22T22:14:31.997Z,73.80
2018-12-22T22:17:00.930Z,74.90
2018-12-22T22:19:29.906Z,74.30
2018-12-22T22:21:58.829Z,74.80
2018-12-22T22:24:27.821Z,74.10
2018-12-22T22:26:56.801Z,75.30
2018-12-22T22:29:25.738Z,75.00
2018-12-22T22:31:54.718Z,74.30
2018-12-22T22:34:23.670Z,75.40
2018-12-22T22:36:52.658Z,74.00
2018-12-22T22:39:21.677Z,75.20
2018-12-22T22:41:50.595Z,75.40
2018-12-22T22:44:19.521Z,75.70
2018-12-22T22:46:48.456Z,75.70
2018-12-22T22:49:18.070Z,75.40
2018-12-22T22:51:47.117Z,74.80
2018-12-22T22:54:16.073Z,75.70
2018-12-22T22:56:45.154Z,75.60
2018-12-22T22:59:14.090Z,76.40
2018-12-22T23:01:43.065Z,77.60
2018-12-22T23:04:12.010Z,77.80
2018-12-22T23:06:40.979Z,78.00
2018-12-22T23:09:09.921Z,78.40
2018-12-22T23:11:38.930Z,78.70
2018-12-22T23:14:07.880Z,78.90
2018-12-22T23:16:36.822Z,78.70
2018-12-22T23:19:05.857Z,79.20
2018-12-22T23:21:34.785Z,79.80
2018-12-22T23:24:03.737Z,79.80
2018-12-22T23:26:32.677Z,79.70
2018-12-22T23:29:01.626Z,79.50
2018-12-22T23:31:30.563Z,80.00
2018-12-22T23:33:59.495Z,79.40
2018-12-22T23:36:28.460Z,78.90
2018-12-22T23:38:57.513Z,79.30
2018-12-22T23:41:26.484Z,78.10
2018-12-22T23:43:55.440Z,78.70
2018-12-22T23:46:24.365Z,77.50
2018-12-22T23:51:26.438Z,77.40
2018-12-22T23:53:55.415Z,76.20
2018-12-22T23:56:24.380Z,76.10
2018-12-22T23:58:53.352Z,76.50
